createdAt,value
2022-11-25T00:00:11.319Z,0.43
2022-11-25T00:02:43.672Z,0.90
2022-11-25T00:05:11.362Z,1.03
2022-11-25T00:07:39.390Z,1.63
2022-11-25T00:10:07.443Z,1.37
2022-11-25T00:12:34.882Z,0.47
2022-11-25T00:15:02.559Z,0.30
2022-11-25T00:17:30.067Z,1.33
2022-11-25T00:19:57.641Z,0.70
2022-11-25T00:22:25.082Z,0.77
2022-11-25T00:24:52.519Z,0.50
2022-11-25T00:27:19.799Z,4.10
2022-11-25T00:29:47.045Z,0.53
2022-11-25T00:32:14.359Z,0.30
2022-11-25T00:34:41.719Z,0.47
2022-11-25T00:37:09.078Z,0.37
2022-11-25T00:39:36.359Z,0.47
2022-11-25T00:42:22.199Z,0.33
2022-11-25T00:44:49.518Z,0.53
2022-11-25T00:47:18.079Z,0.50
2022-11-25T00:49:46.363Z,1.63
2022-11-25T00:52:19.159Z,0.40
2022-11-25T00:54:50.531Z,0.60
2022-11-25T00:57:19.359Z,1.80
2022-11-25T00:59:46.758Z,0.20
2022-11-25T01:02:14.950Z,0.93
2022-11-25T01:04:42.279Z,0.30
2022-11-25T01:07:09.707Z,0.30
2022-11-25T01:09:37.761Z,0.30
2022-11-25T01:12:05.519Z,0.63
2022-11-25T01:14:33.475Z,0.30
2022-11-25T01:17:00.961Z,0.20
2022-11-25T01:19:28.438Z,0.37
2022-11-25T01:21:55.803Z,0.43
2022-11-25T01:24:24.173Z,0.50
2022-11-25T01:26:51.718Z,0.50
2022-11-25T01:29:20.119Z,0.67
2022-11-25T01:31:48.726Z,0.57
2022-11-25T01:34:26.199Z,0.40
2022-11-25T01:36:53.638Z,0.37
2022-11-25T01:39:25.664Z,0.23
2022-11-25T01:41:58.159Z,0.70
2022-11-25T01:44:28.277Z,0.40
2022-11-25T01:47:14.288Z,1.83
2022-11-25T01:49:45.158Z,0.30
2022-11-25T01:52:18.838Z,0.87
2022-11-25T01:55:05.918Z,0.63
2022-11-25T01:57:38.484Z,0.23
2022-11-25T02:00:10.039Z,0.40
2022-11-25T02:02:37.564Z,0.53
2022-11-25T02:05:08.000Z,0.40
2022-11-25T02:07:39.847Z,0.60
2022-11-25T02:10:14.120Z,0.33
2022-11-25T02:12:42.367Z,1.13
2022-11-25T02:15:10.042Z,0.30
2022-11-25T02:17:37.598Z,0.30
2022-11-25T02:20:14.962Z,0.23
2022-11-25T02:23:01.082Z,0.20
2022-11-25T02:25:33.403Z,2.77
2022-11-25T02:28:08.719Z,0.87
2022-11-25T02:30:36.682Z,0.40
2022-11-25T02:33:04.439Z,0.40
2022-11-25T02:35:39.121Z,0.80
2022-11-25T02:38:15.522Z,0.57
2022-11-25T02:40:48.558Z,0.20
2022-11-25T02:43:16.322Z,0.30
2022-11-25T02:45:48.159Z,0.40
2022-11-25T02:48:15.880Z,0.60
2022-11-25T02:50:43.317Z,0.30
2022-11-25T02:53:10.838Z,0.30
2022-11-25T02:55:38.359Z,0.37
2022-11-25T02:58:05.799Z,0.50
2022-11-25T03:00:33.199Z,0.40
2022-11-25T03:03:00.839Z,0.83
2022-11-25T03:05:28.282Z,0.20
2022-11-25T03:07:55.704Z,0.13
2022-11-25T03:10:23.399Z,0.13
2022-11-25T03:12:50.800Z,0.30
2022-11-25T03:15:18.220Z,0.30
2022-11-25T03:17:45.598Z,0.20
2022-11-25T03:20:13.344Z,0.20
2022-11-25T03:22:40.604Z,0.30
2022-11-25T03:25:08.078Z,0.60
2022-11-25T03:27:35.478Z,0.67
2022-11-25T03:30:03.278Z,0.20
2022-11-25T03:32:30.638Z,0.10
2022-11-25T03:34:58.040Z,0.33
2022-11-25T03:37:25.651Z,0.20
2022-11-25T03:39:53.165Z,0.70
2022-11-25T03:42:20.482Z,0.30
2022-11-25T03:44:47.839Z,0.50
2022-11-25T03:47:15.159Z,0.20
2022-11-25T03:49:42.478Z,0.43
2022-11-25T03:52:09.962Z,0.50
2022-11-25T03:54:37.444Z,0.37
2022-11-25T03:57:05.162Z,0.23
2022-11-25T03:59:32.600Z,0.10
2022-11-25T04:02:00.023Z,0.13
2022-11-25T04:04:27.438Z,0.97
2022-11-25T04:06:54.762Z,0.20
2022-11-25T04:09:22.444Z,0.37
2022-11-25T04:12:11.963Z,0.50
2022-11-25T04:14:39.361Z,1.60
2022-11-25T04:17:06.629Z,4.97
2022-11-25T04:19:34.119Z,3.83
2022-11-25T04:22:02.918Z,3.03
2022-11-25T04:24:30.278Z,2.87
2022-11-25T04:26:57.723Z,0.60
2022-11-25T04:29:25.199Z,0.53
2022-11-25T04:31:52.561Z,0.40
2022-11-25T04:34:20.038Z,0.30
2022-11-25T04:36:47.399Z,1.03
2022-11-25T04:39:14.805Z,0.20
2022-11-25T04:41:43.318Z,0.20
2022-11-25T04:44:11.202Z,0.63
2022-11-25T04:46:40.276Z,1.20
2022-11-25T04:49:07.801Z,0.40
2022-11-25T04:51:35.261Z,0.40
2022-11-25T04:54:02.599Z,0.73
2022-11-25T04:56:30.122Z,1.53
2022-11-25T04:59:16.284Z,0.90
2022-11-25T05:01:43.662Z,1.70
2022-11-25T05:04:11.082Z,1.10
2022-11-25T05:06:38.480Z,0.90
2022-11-25T05:09:06.159Z,0.80
2022-11-25T05:11:33.438Z,0.57
2022-11-25T05:14:00.878Z,0.73
2022-11-25T05:16:28.250Z,1.13
2022-11-25T05:18:58.599Z,1.47
2022-11-25T05:21:25.958Z,1.30
2022-11-25T05:23:56.133Z,1.10
2022-11-25T05:26:23.798Z,0.77
2022-11-25T05:28:51.162Z,0.57
2022-11-25T05:31:18.714Z,0.50
2022-11-25T05:33:46.242Z,0.70
2022-11-25T05:36:13.485Z,0.70
2022-11-25T05:38:40.839Z,1.27
2022-11-25T05:41:08.801Z,0.40
2022-11-25T05:43:36.205Z,0.63
2022-11-25T05:46:10.160Z,0.50
2022-11-25T05:48:37.724Z,1.23
2022-11-25T05:51:05.921Z,0.33
2022-11-25T05:53:33.801Z,0.57
2022-11-25T05:56:02.038Z,0.30
2022-11-25T05:58:30.078Z,0.67
2022-11-25T06:00:58.361Z,0.40
2022-11-25T06:03:26.183Z,2.33
2022-11-25T06:05:53.639Z,2.10
2022-11-25T06:08:21.112Z,0.93
2022-11-25T06:10:48.575Z,7.23
2022-11-25T06:13:16.011Z,2.37
2022-11-25T06:15:44.366Z,0.50
2022-11-25T06:18:12.600Z,0.93
2022-11-25T06:20:40.321Z,2.67
2022-11-25T06:23:07.838Z,0.93
2022-11-25T06:25:35.169Z,0.70
2022-11-25T06:28:18.869Z,0.97
2022-11-25T06:30:46.637Z,2.07
2022-11-25T06:33:14.042Z,1.67
2022-11-25T06:35:41.496Z,1.00
2022-11-25T06:38:09.724Z,0.80
2022-11-25T06:40:37.175Z,0.93
2022-11-25T06:43:05.539Z,0.90
2022-11-25T06:45:33.885Z,0.93
2022-11-25T06:48:01.248Z,1.20
2022-11-25T06:50:28.682Z,0.60
2022-11-25T06:52:56.087Z,0.83
2022-11-25T06:55:23.438Z,0.47
2022-11-25T06:57:53.294Z,4.67
2022-11-25T07:00:23.380Z,4.50
2022-11-25T07:02:50.937Z,7.43
2022-11-25T07:05:18.381Z,4.30
2022-11-25T07:07:45.726Z,2.27
2022-11-25T07:10:13.239Z,2.90
2022-11-25T07:12:41.162Z,3.33
2022-11-25T07:15:08.721Z,4.40
2022-11-25T07:17:36.081Z,1.57
2022-11-25T07:20:03.490Z,2.17
2022-11-25T07:22:30.933Z,1.30
2022-11-25T07:24:58.376Z,1.43
2022-11-25T07:27:25.680Z,2.23
2022-11-25T07:30:18.702Z,2.20
2022-11-25T07:32:40.481Z,6.93
2022-11-25T07:35:08.362Z,8.57
2022-11-25T07:37:35.679Z,9.23
2022-11-25T07:40:03.199Z,3.83
2022-11-25T07:42:30.564Z,2.33
2022-11-25T07:44:59.161Z,3.10
2022-11-25T07:47:26.566Z,6.30
2022-11-25T07:49:53.959Z,3.33
2022-11-25T07:52:21.404Z,2.00
2022-11-25T07:54:48.835Z,2.17
2022-11-25T07:57:16.300Z,1.43
2022-11-25T07:59:43.642Z,4.43
2022-11-25T08:02:11.181Z,1.03
2022-11-25T08:04:38.769Z,2.53
2022-11-25T08:07:06.081Z,1.77
2022-11-25T08:09:33.482Z,1.90
2022-11-25T08:12:00.763Z,2.40
2022-11-25T08:14:28.162Z,3.63
2022-11-25T08:16:55.576Z,1.93
2022-11-25T08:19:27.070Z,1.03
2022-11-25T08:21:57.327Z,2.67
2022-11-25T08:24:25.865Z,1.97
2022-11-25T08:26:55.045Z,1.80
2022-11-25T08:29:22.609Z,1.77
2022-11-25T08:31:50.081Z,1.13
2022-11-25T08:34:19.283Z,1.40
2022-11-25T08:36:48.505Z,1.23
2022-11-25T08:39:44.028Z,1.43
2022-11-25T08:42:04.641Z,1.50
2022-11-25T08:44:32.196Z,1.00
2022-11-25T08:46:59.664Z,2.90
2022-11-25T08:49:31.139Z,1.30
2022-11-25T08:52:01.262Z,1.53
2022-11-25T08:54:28.608Z,3.83
2022-11-25T08:56:55.964Z,1.13
2022-11-25T08:59:23.577Z,0.67
2022-11-25T09:01:51.023Z,1.83
2022-11-25T09:04:18.492Z,0.93
2022-11-25T09:06:45.934Z,1.17
2022-11-25T09:09:13.242Z,3.83
2022-11-25T09:11:40.969Z,1.67
2022-11-25T09:14:08.769Z,1.57
2022-11-25T09:16:36.307Z,2.10
2022-11-25T09:19:04.423Z,2.83
2022-11-25T09:21:31.779Z,9.70
2022-11-25T09:23:59.089Z,4.17
2022-11-25T09:26:30.759Z,6.00
2022-11-25T09:28:58.287Z,7.33
2022-11-25T09:31:25.718Z,9.70
2022-11-25T09:33:53.162Z,12.00
2022-11-25T09:36:21.251Z,4.00
2022-11-25T09:38:48.619Z,5.20
2022-11-25T09:41:56.562Z,3.30
2022-11-25T09:45:00.603Z,7.63
2022-11-25T09:47:48.911Z,1.53
2022-11-25T09:50:17.206Z,3.67
2022-11-25T09:52:44.600Z,3.80
2022-11-25T09:55:24.142Z,3.77
2022-11-25T09:58:00.685Z,3.87
2022-11-25T10:00:38.890Z,2.47
2022-11-25T10:03:36.232Z,2.40
2022-11-25T10:06:06.842Z,1.43
2022-11-25T10:08:42.362Z,2.40
2022-11-25T10:11:15.757Z,11.33
2022-11-25T10:13:48.842Z,9.03
2022-11-25T10:16:32.332Z,6.43
2022-11-25T10:19:01.889Z,2.33
2022-11-25T10:21:29.738Z,5.87
2022-11-25T10:23:59.081Z,5.60
2022-11-25T10:26:30.257Z,4.33
2022-11-25T10:29:17.201Z,4.07
2022-11-25T10:31:44.928Z,4.00
2022-11-25T10:34:30.879Z,5.90
2022-11-25T10:36:59.641Z,8.87
2022-11-25T10:39:28.876Z,11.57
2022-11-25T10:41:59.080Z,4.53
2022-11-25T10:44:30.801Z,0.80
2022-11-25T10:47:14.684Z,3.47
2022-11-25T10:49:57.870Z,1.27
2022-11-25T10:55:33.407Z,1.73
2022-11-25T10:58:20.473Z,5.17
2022-11-25T11:00:47.926Z,1.50
2022-11-25T11:03:16.434Z,0.50
2022-11-25T11:05:49.094Z,2.43
2022-11-25T11:08:18.799Z,0.43
2022-11-25T11:10:46.846Z,0.60
2022-11-25T11:13:26.958Z,0.50
2022-11-25T11:15:55.107Z,1.07
2022-11-25T11:18:25.752Z,0.40
2022-11-25T11:20:57.744Z,0.83
2022-11-25T11:23:25.645Z,0.77
2022-11-25T11:26:01.360Z,0.73
2022-11-25T11:28:33.098Z,1.03
2022-11-25T11:31:10.809Z,0.57
2022-11-25T11:33:42.441Z,0.30
2022-11-25T11:36:15.922Z,0.60
2022-11-25T11:38:52.449Z,0.90
2022-11-25T11:41:19.804Z,0.53
2022-11-25T11:43:47.204Z,0.20
2022-11-25T11:46:33.412Z,0.30
2022-11-25T11:49:11.760Z,0.67
2022-11-25T11:51:52.999Z,0.33
2022-11-25T11:54:30.798Z,0.50
2022-11-25T11:57:00.792Z,1.47
2022-11-25T11:59:40.400Z,0.43
2022-11-25T12:02:22.619Z,0.40
2022-11-25T12:04:59.094Z,1.43
2022-11-25T12:07:32.572Z,0.30
2022-11-25T12:10:17.761Z,2.90
2022-11-25T12:12:49.599Z,0.50
2022-11-25T12:15:35.442Z,0.47
2022-11-25T12:18:23.097Z,0.77
2022-11-25T12:21:08.296Z,7.63
2022-11-25T12:23:42.120Z,6.13
2022-11-25T12:26:28.080Z,5.57
2022-11-25T12:29:02.072Z,4.53
2022-11-25T12:31:32.601Z,2.63
2022-11-25T12:34:06.780Z,1.57
2022-11-25T12:36:38.881Z,1.83
2022-11-25T12:39:21.239Z,5.43
2022-11-25T12:41:52.767Z,3.87
2022-11-25T12:44:30.555Z,4.03
2022-11-25T12:46:59.029Z,2.70
2022-11-25T12:49:27.760Z,1.27
2022-11-25T12:52:13.878Z,0.30
2022-11-25T12:54:44.050Z,1.23
2022-11-25T12:57:26.280Z,1.00
2022-11-25T13:00:39.902Z,4.83
2022-11-25T13:03:17.858Z,1.00
2022-11-25T13:05:50.965Z,0.40
2022-11-25T13:08:36.800Z,0.90
2022-11-25T13:11:07.250Z,4.03
2022-11-25T13:13:42.330Z,1.33
2022-11-25T13:16:11.401Z,0.87
2022-11-25T13:18:43.803Z,1.80
2022-11-25T13:21:13.990Z,2.70
2022-11-25T13:23:49.279Z,1.50
2022-11-25T13:26:34.026Z,1.70
2022-11-25T13:29:02.365Z,2.00
2022-11-25T13:31:35.030Z,1.13
2022-11-25T13:34:10.206Z,0.50
2022-11-25T13:36:46.528Z,0.33
2022-11-25T13:39:18.389Z,0.50
2022-11-25T13:41:45.730Z,2.00
2022-11-25T13:44:15.920Z,0.90
2022-11-25T13:46:44.942Z,1.03
2022-11-25T13:49:21.722Z,1.40
2022-11-25T13:51:52.764Z,2.77
2022-11-25T13:54:23.864Z,1.90
2022-11-25T13:57:01.158Z,0.90
2022-11-25T13:59:58.287Z,0.93
2022-11-25T14:02:28.613Z,2.63
2022-11-25T14:05:14.348Z,1.30
2022-11-25T14:07:50.318Z,1.30
2022-11-25T14:10:20.380Z,2.23
2022-11-25T14:12:47.893Z,1.43
2022-11-25T14:15:21.481Z,1.10
2022-11-25T14:18:07.084Z,2.97
2022-11-25T14:20:53.813Z,0.93
2022-11-25T14:23:40.182Z,1.50
2022-11-25T14:26:27.066Z,1.13
2022-11-25T14:29:09.720Z,0.97
2022-11-25T14:31:46.301Z,1.70
2022-11-25T14:34:16.881Z,2.17
2022-11-25T14:36:48.204Z,2.20
2022-11-25T14:39:34.040Z,0.83
2022-11-25T14:42:11.522Z,3.70
2022-11-25T14:44:47.530Z,0.67
2022-11-25T14:47:14.923Z,2.10
2022-11-25T14:52:55.970Z,1.80
2022-11-25T14:55:30.844Z,1.10
2022-11-25T14:57:58.283Z,1.87
2022-11-25T15:00:25.604Z,1.67
2022-11-25T15:02:54.905Z,3.20
2022-11-25T15:05:26.314Z,0.60
2022-11-25T15:08:07.712Z,2.13
2022-11-25T15:10:43.400Z,1.87
2022-11-25T15:13:13.884Z,5.37
2022-11-25T15:15:41.804Z,2.40
2022-11-25T15:18:12.221Z,3.63
2022-11-25T15:20:39.650Z,7.43
2022-11-25T15:23:20.722Z,5.33
2022-11-25T15:25:54.566Z,5.63
2022-11-25T15:28:21.957Z,1.83
2022-11-25T15:30:59.538Z,2.70
2022-11-25T15:33:27.482Z,1.33
2022-11-25T15:35:55.179Z,1.80
2022-11-25T15:38:35.127Z,2.70
2022-11-25T15:41:03.087Z,5.57
2022-11-25T15:43:31.519Z,4.10
2022-11-25T15:46:03.738Z,1.30
2022-11-25T15:48:46.459Z,4.20
2022-11-25T15:51:22.392Z,12.97
2022-11-25T15:53:54.447Z,9.13
2022-11-25T15:56:24.114Z,4.03
2022-11-25T15:58:51.460Z,10.73
2022-11-25T16:01:18.881Z,6.53
2022-11-25T16:03:46.797Z,5.40
2022-11-25T16:06:23.143Z,3.07
2022-11-25T16:08:57.191Z,4.67
2022-11-25T16:11:25.902Z,6.13
2022-11-25T16:13:54.004Z,2.53
2022-11-25T16:16:26.072Z,3.10
2022-11-25T16:19:02.395Z,3.43
2022-11-25T16:21:36.000Z,3.60
2022-11-25T16:24:09.321Z,7.07
2022-11-25T16:26:57.302Z,13.73
2022-11-25T16:29:35.778Z,10.33
2022-11-25T16:32:13.170Z,4.57
2022-11-25T16:34:40.562Z,4.30
2022-11-25T16:37:08.041Z,4.27
2022-11-25T16:39:35.749Z,4.20
2022-11-25T16:42:04.519Z,4.00
2022-11-25T16:44:33.288Z,7.83
2022-11-25T16:47:01.121Z,5.87
2022-11-25T16:49:30.045Z,7.27
2022-11-25T16:51:57.483Z,4.33
2022-11-25T16:54:24.800Z,3.03
2022-11-25T16:56:55.881Z,6.03
2022-11-25T16:59:29.283Z,7.83
2022-11-25T17:01:57.206Z,4.70
2022-11-25T17:04:25.043Z,9.83
2022-11-25T17:07:24.142Z,3.67
2022-11-25T17:09:40.131Z,3.20
2022-11-25T17:12:18.838Z,3.60
2022-11-25T17:14:46.680Z,2.53
2022-11-25T17:17:24.628Z,4.77
2022-11-25T17:19:53.182Z,4.27
2022-11-25T17:22:23.482Z,5.30
2022-11-25T17:24:51.039Z,3.07
2022-11-25T17:27:21.761Z,3.10
2022-11-25T17:29:49.502Z,4.63
2022-11-25T17:32:17.467Z,4.77
2022-11-25T17:34:44.889Z,2.73
2022-11-25T17:37:33.096Z,3.23
2022-11-25T17:40:00.583Z,2.90
2022-11-25T17:42:30.280Z,3.20
2022-11-25T17:44:57.920Z,2.17
2022-11-25T17:47:25.405Z,1.80
2022-11-25T17:49:53.360Z,1.73
2022-11-25T17:52:20.801Z,2.70
2022-11-25T17:54:48.256Z,4.60
2022-11-25T17:57:18.164Z,1.67
2022-11-25T17:59:45.616Z,2.17
2022-11-25T18:02:22.774Z,1.73
2022-11-25T18:04:50.483Z,1.70
2022-11-25T18:07:18.181Z,2.43
2022-11-25T18:09:48.762Z,2.03
2022-11-25T18:12:36.819Z,1.30
2022-11-25T18:15:08.319Z,2.23
2022-11-25T18:17:37.208Z,3.83
2022-11-25T18:20:16.079Z,2.70
2022-11-25T18:22:45.520Z,3.33
2022-11-25T18:25:17.284Z,3.27
2022-11-25T18:27:45.081Z,4.90
2022-11-25T18:30:19.652Z,5.97
2022-11-25T18:32:47.683Z,5.57
2022-11-25T18:35:19.883Z,4.70
2022-11-25T18:37:48.082Z,4.27
2022-11-25T18:40:16.004Z,5.33
2022-11-25T18:42:44.599Z,3.73
2022-11-25T18:45:20.325Z,6.50
2022-11-25T18:47:48.185Z,6.77
2022-11-25T18:50:15.879Z,8.47
2022-11-25T18:52:43.457Z,5.37
2022-11-25T18:55:11.823Z,4.47
2022-11-25T18:57:40.145Z,4.50
2022-11-25T19:00:30.932Z,3.00
2022-11-25T19:02:56.289Z,5.77
2022-11-25T19:05:25.242Z,3.50
2022-11-25T19:07:53.918Z,3.77
2022-11-25T19:10:22.441Z,3.97
2022-11-25T19:12:52.281Z,3.50
2022-11-25T19:15:21.683Z,5.73
2022-11-25T19:17:49.923Z,3.87
2022-11-25T19:20:18.042Z,3.63
2022-11-25T19:22:45.362Z,5.37
2022-11-25T19:25:13.160Z,5.23
2022-11-25T19:27:43.090Z,4.53
2022-11-25T19:30:31.200Z,4.07
2022-11-25T19:33:00.120Z,3.17
2022-11-25T19:35:30.483Z,4.27
2022-11-25T19:37:57.923Z,5.17
2022-11-25T19:40:25.642Z,2.57
2022-11-25T19:42:53.121Z,5.07
2022-11-25T19:45:21.277Z,2.83
2022-11-25T19:47:50.688Z,2.93
2022-11-25T19:50:22.605Z,2.43
2022-11-25T19:52:50.441Z,2.97
2022-11-25T19:55:19.562Z,2.23
2022-11-25T19:57:47.406Z,1.77
2022-11-25T20:00:16.086Z,2.93
2022-11-25T20:02:43.898Z,1.90
2022-11-25T20:05:12.444Z,2.40
2022-11-25T20:07:39.940Z,3.47
2022-11-25T20:10:24.321Z,4.10
2022-11-25T20:12:53.162Z,4.27
2022-11-25T20:15:20.562Z,3.57
2022-11-25T20:18:06.340Z,3.43
2022-11-25T20:20:36.050Z,4.17
2022-11-25T20:23:03.477Z,2.53
2022-11-25T20:25:31.322Z,2.67
2022-11-25T20:27:58.644Z,3.00
2022-11-25T20:30:27.342Z,2.73
2022-11-25T20:32:54.653Z,3.03
2022-11-25T20:35:22.442Z,4.60
2022-11-25T20:37:58.247Z,4.33
2022-11-25T20:40:30.205Z,3.17
2022-11-25T20:42:58.166Z,10.00
2022-11-25T20:45:26.019Z,4.00
2022-11-25T20:47:53.518Z,3.20
2022-11-25T20:50:21.930Z,3.67
2022-11-25T20:52:50.520Z,5.50
2022-11-25T20:55:22.242Z,3.63
2022-11-25T20:57:50.732Z,5.57
2022-11-25T21:00:18.238Z,3.87
2022-11-25T21:02:45.942Z,3.73
2022-11-25T21:05:13.682Z,3.47
2022-11-25T21:07:41.562Z,3.40
2022-11-25T21:10:29.284Z,4.17
2022-11-25T21:12:57.402Z,3.17
2022-11-25T21:15:26.358Z,5.37
2022-11-25T21:17:53.883Z,3.80
2022-11-25T21:20:21.403Z,3.80
2022-11-25T21:22:50.613Z,4.70
2022-11-25T21:25:18.918Z,2.57
2022-11-25T21:27:47.401Z,4.27
2022-11-25T21:30:25.118Z,5.67
2022-11-25T21:32:54.566Z,5.20
2022-11-25T21:35:22.839Z,6.87
2022-11-25T21:37:50.083Z,4.80
2022-11-25T21:40:25.047Z,3.47
2022-11-25T21:42:52.495Z,4.93
2022-11-25T21:45:20.039Z,6.53
2022-11-25T21:47:47.404Z,2.77
2022-11-25T21:50:19.565Z,3.47
2022-11-25T21:52:46.884Z,2.40
2022-11-25T21:55:17.909Z,3.77
2022-11-25T21:57:45.488Z,4.47
2022-11-25T22:00:20.005Z,5.50
2022-11-25T22:02:47.667Z,5.53
2022-11-25T22:05:16.449Z,4.13
2022-11-25T22:07:44.548Z,4.27
2022-11-25T22:10:13.285Z,3.47
2022-11-25T22:12:41.785Z,5.03
2022-11-25T22:15:17.641Z,4.50
2022-11-25T22:17:45.550Z,4.23
2022-11-25T22:20:22.886Z,4.53
2022-11-25T22:22:50.364Z,4.77
2022-11-25T22:25:17.960Z,3.70
2022-11-25T22:27:46.046Z,2.67
2022-11-25T22:30:20.167Z,2.87
2022-11-25T22:32:48.560Z,3.27
2022-11-25T22:35:20.603Z,2.50
2022-11-25T22:37:54.797Z,3.67
2022-11-25T22:40:23.572Z,2.53
2022-11-25T22:42:52.299Z,4.17
2022-11-25T22:45:23.319Z,5.43
2022-11-25T22:47:50.687Z,3.27
2022-11-25T22:50:24.242Z,4.33
2022-11-25T22:52:52.919Z,2.63
2022-11-25T22:55:20.404Z,2.20
2022-11-25T22:57:48.711Z,3.50
2022-11-25T23:00:20.809Z,2.43
2022-11-25T23:02:49.040Z,4.73
2022-11-25T23:05:30.568Z,3.80
2022-11-25T23:07:59.949Z,5.63
2022-11-25T23:10:28.522Z,3.30
2022-11-25T23:12:56.244Z,2.87
2022-11-25T23:15:24.634Z,2.63
2022-11-25T23:17:54.283Z,2.67
2022-11-25T23:20:26.674Z,3.67
2022-11-25T23:22:54.284Z,1.80
2022-11-25T23:25:22.409Z,1.60
2022-11-25T23:27:50.402Z,1.67
2022-11-25T23:30:19.306Z,1.43
2022-11-25T23:32:48.525Z,1.60
2022-11-25T23:35:17.733Z,2.70
2022-11-25T23:37:45.243Z,2.07
2022-11-25T23:40:22.802Z,3.30
2022-11-25T23:42:50.169Z,1.73
2022-11-25T23:45:19.401Z,3.17
2022-11-25T23:47:47.522Z,2.63
2022-11-25T23:50:27.960Z,3.37
2022-11-25T23:52:57.085Z,2.57
2022-11-25T23:55:27.269Z,3.50
2022-11-25T23:57:55.514Z,2.60
